Estelle, North Carolina
Current Conditions -  °F | °C
As of 9:53 PM on Friday 19 Dec 2014 (Local Time) from KDAN Reporting Station
Clear Clear  
Wind Chill: 34°   Ceiling: Unl
Heat Index: 34°   Visibility: 10mi
Dew Point: 27°   Wind: 3mph
Humidity: 75%   Direction: 40°NE
Pressure: 30.21"   Gusts: NA
Location:  36.5102°N, 79.2177°W
Report Text: KDAN 200253Z AUTO 04003KT 10SM CLR 01/M03 A3021 RMK AO2 SLP226 T00111028 51008
Loading
Personal Weather Stations






























Interactive Weather Map New forecast layout! Learn more

10-Day Weather Forecast

Advertisements
Track Severe Weather on mobile